sensor_id;sensor_type;location;lat;lon;timestamp;temperature;humidity
32097;DHT22;18610;49.916;8.284;2023-05-07T00:01:20;15.10;99.90
32097;DHT22;18610;49.916;8.284;2023-05-07T00:03:47;15.10;99.90
32097;DHT22;18610;49.916;8.284;2023-05-07T00:06:14;15.10;99.90
32097;DHT22;18610;49.916;8.284;2023-05-07T00:08:41;15.10;99.90
32097;DHT22;18610;49.916;8.284;2023-05-07T00:11:08;15.00;99.90
32097;DHT22;18610;49.916;8.284;2023-05-07T00:13:35;15.00;99.90
32097;DHT22;18610;49.916;8.284;2023-05-07T00:16:03;15.00;99.90
32097;DHT22;18610;49.916;8.284;2023-05-07T00:18:30;15.00;99.90
32097;DHT22;18610;49.916;8.284;2023-05-07T00:20:57;15.00;99.90
32097;DHT22;18610;49.916;8.284;2023-05-07T00:23:24;15.00;99.90
32097;DHT22;18610;49.916;8.284;2023-05-07T00:25:50;15.00;99.90
32097;DHT22;18610;49.916;8.284;2023-05-07T00:28:17;15.00;99.90
32097;DHT22;18610;49.916;8.284;2023-05-07T00:30:44;15.00;99.90
32097;DHT22;18610;49.916;8.284;2023-05-07T00:33:12;15.00;99.90
32097;DHT22;18610;49.916;8.284;2023-05-07T00:35:39;15.00;99.90
32097;DHT22;18610;49.916;8.284;2023-05-07T00:38:06;15.00;99.90
32097;DHT22;18610;49.916;8.284;2023-05-07T00:40:32;15.00;99.90
32097;DHT22;18610;49.916;8.284;2023-05-07T00:42:59;15.00;99.90
32097;DHT22;18610;49.916;8.284;2023-05-07T00:45:27;14.90;99.90
32097;DHT22;18610;49.916;8.284;2023-05-07T00:47:54;14.80;99.90
32097;DHT22;18610;49.916;8.284;2023-05-07T00:50:22;14.80;99.90
32097;DHT22;18610;49.916;8.284;2023-05-07T00:52:49;14.70;99.90
32097;DHT22;18610;49.916;8.284;2023-05-07T00:55:16;14.70;99.90
32097;DHT22;18610;49.916;8.284;2023-05-07T00:57:43;14.60;99.90
32097;DHT22;18610;49.916;8.284;2023-05-07T01:00:12;14.60;99.90
32097;DHT22;18610;49.916;8.284;2023-05-07T01:02:39;14.60;99.90
32097;DHT22;18610;49.916;8.284;2023-05-07T01:05:08;14.50;99.90
32097;DHT22;18610;49.916;8.284;2023-05-07T01:07:37;14.50;99.90
32097;DHT22;18610;49.916;8.284;2023-05-07T01:10:05;14.50;99.90
32097;DHT22;18610;49.916;8.284;2023-05-07T01:12:33;14.50;99.90
32097;DHT22;18610;49.916;8.284;2023-05-07T01:15:01;14.40;99.90
32097;DHT22;18610;49.916;8.284;2023-05-07T01:17:28;14.40;99.90
32097;DHT22;18610;49.916;8.284;2023-05-07T01:19:55;14.40;99.90
32097;DHT22;18610;49.916;8.284;2023-05-07T01:22:30;14.40;99.90
32097;DHT22;18610;49.916;8.284;2023-05-07T01:24:57;14.40;99.90
32097;DHT22;18610;49.916;8.284;2023-05-07T01:27:25;14.40;99.90
32097;DHT22;18610;49.916;8.284;2023-05-07T01:29:51;14.40;99.90
32097;DHT22;18610;49.916;8.284;2023-05-07T01:32:20;14.50;99.90
32097;DHT22;18610;49.916;8.284;2023-05-07T01:34:48;14.50;99.90
32097;DHT22;18610;49.916;8.284;2023-05-07T01:37:17;14.50;99.90
32097;DHT22;18610;49.916;8.284;2023-05-07T01:39:45;14.50;99.90
32097;DHT22;18610;49.916;8.284;2023-05-07T01:42:12;14.60;99.90
32097;DHT22;18610;49.916;8.284;2023-05-07T01:44:39;14.60;99.90
32097;DHT22;18610;49.916;8.284;2023-05-07T01:47:06;14.60;99.90
32097;DHT22;18610;49.916;8.284;2023-05-07T01:49:33;14.60;99.90
32097;DHT22;18610;49.916;8.284;2023-05-07T01:52:01;14.50;99.90
32097;DHT22;18610;49.916;8.284;2023-05-07T01:54:28;14.50;99.90
32097;DHT22;18610;49.916;8.284;2023-05-07T01:56:56;14.50;99.90
32097;DHT22;18610;49.916;8.284;2023-05-07T01:59:23;14.50;99.90
32097;DHT22;18610;49.916;8.284;2023-05-07T02:01:50;14.50;99.90
32097;DHT22;18610;49.916;8.284;2023-05-07T02:04:17;14.50;99.90
32097;DHT22;18610;49.916;8.284;2023-05-07T02:06:44;14.50;99.90
32097;DHT22;18610;49.916;8.284;2023-05-07T02:09:11;14.50;99.90
32097;DHT22;18610;49.916;8.284;2023-05-07T02:11:38;14.50;99.90
32097;DHT22;18610;49.916;8.284;2023-05-07T02:14:06;14.50;99.90
32097;DHT22;18610;49.916;8.284;2023-05-07T02:16:33;14.50;99.90
32097;DHT22;18610;49.916;8.284;2023-05-07T02:18:59;14.50;99.90
32097;DHT22;18610;49.916;8.284;2023-05-07T02:21:26;14.50;99.90
32097;DHT22;18610;49.916;8.284;2023-05-07T02:23:53;14.50;99.90
32097;DHT22;18610;49.916;8.284;2023-05-07T02:26:19;14.50;99.90
32097;DHT22;18610;49.916;8.284;2023-05-07T02:28:46;14.50;99.90
32097;DHT22;18610;49.916;8.284;2023-05-07T02:31:15;14.60;99.90
32097;DHT22;18610;49.916;8.284;2023-05-07T02:33:41;14.50;99.90
32097;DHT22;18610;49.916;8.284;2023-05-07T02:36:10;14.50;99.90
32097;DHT22;18610;49.916;8.284;2023-05-07T02:38:37;14.50;99.90
32097;DHT22;18610;49.916;8.284;2023-05-07T02:41:04;14.50;99.90
32097;DHT22;18610;49.916;8.284;2023-05-07T02:43:30;14.50;99.90
32097;DHT22;18610;49.916;8.284;2023-05-07T02:46:01;14.50;99.90
32097;DHT22;18610;49.916;8.284;2023-05-07T02:48:29;14.50;99.90
32097;DHT22;18610;49.916;8.284;2023-05-07T02:50:56;14.50;99.90
32097;DHT22;18610;49.916;8.284;2023-05-07T02:53:26;14.50;99.90
32097;DHT22;18610;49.916;8.284;2023-05-07T02:55:55;14.50;99.90
32097;DHT22;18610;49.916;8.284;2023-05-07T02:58:23;14.50;99.90
32097;DHT22;18610;49.916;8.284;2023-05-07T03:00:49;14.50;99.90
32097;DHT22;18610;49.916;8.284;2023-05-07T03:03:16;14.50;99.90
32097;DHT22;18610;49.916;8.284;2023-05-07T03:05:44;14.50;99.90
32097;DHT22;18610;49.916;8.284;2023-05-07T03:08:11;14.50;99.90
32097;DHT22;18610;49.916;8.284;2023-05-07T03:10:38;14.50;99.90
32097;DHT22;18610;49.916;8.284;2023-05-07T03:13:05;14.50;99.90
32097;DHT22;18610;49.916;8.284;2023-05-07T03:15:32;14.60;99.90
32097;DHT22;18610;49.916;8.284;2023-05-07T03:17:58;14.60;99.90
32097;DHT22;18610;49.916;8.284;2023-05-07T03:20:25;14.60;99.90
32097;DHT22;18610;49.916;8.284;2023-05-07T03:22:53;14.70;99.90
32097;DHT22;18610;49.916;8.284;2023-05-07T03:25:20;14.70;99.90
32097;DHT22;18610;49.916;8.284;2023-05-07T03:27:47;14.70;99.90
32097;DHT22;18610;49.916;8.284;2023-05-07T03:30:13;14.70;99.90
32097;DHT22;18610;49.916;8.284;2023-05-07T03:32:40;14.80;99.90
32097;DHT22;18610;49.916;8.284;2023-05-07T03:35:07;14.80;99.90
32097;DHT22;18610;49.916;8.284;2023-05-07T03:37:34;14.80;99.90
32097;DHT22;18610;49.916;8.284;2023-05-07T03:40:02;14.80;99.90
32097;DHT22;18610;49.916;8.284;2023-05-07T03:42:29;14.80;99.90
32097;DHT22;18610;49.916;8.284;2023-05-07T03:44:56;14.80;99.90
32097;DHT22;18610;49.916;8.284;2023-05-07T03:47:22;14.80;99.90
32097;DHT22;18610;49.916;8.284;2023-05-07T03:49:49;14.90;99.90
32097;DHT22;18610;49.916;8.284;2023-05-07T03:52:18;14.90;99.90
32097;DHT22;18610;49.916;8.284;2023-05-07T03:54:49;14.90;99.90
32097;DHT22;18610;49.916;8.284;2023-05-07T03:57:17;14.90;99.90
32097;DHT22;18610;49.916;8.284;2023-05-07T03:59:43;14.90;99.90
32097;DHT22;18610;49.916;8.284;2023-05-07T04:02:10;14.90;99.90
32097;DHT22;18610;49.916;8.284;2023-05-07T04:04:37;14.90;99.90
32097;DHT22;18610;49.916;8.284;2023-05-07T04:07:04;14.90;99.90
32097;DHT22;18610;49.916;8.284;2023-05-07T04:09:30;14.90;99.90
32097;DHT22;18610;49.916;8.284;2023-05-07T04:11:57;14.90;99.90
32097;DHT22;18610;49.916;8.284;2023-05-07T04:14:25;14.90;99.90
32097;DHT22;18610;49.916;8.284;2023-05-07T04:16:52;15.00;99.90
32097;DHT22;18610;49.916;8.284;2023-05-07T04:19:18;15.00;99.90
32097;DHT22;18610;49.916;8.284;2023-05-07T04:21:45;15.00;99.90
32097;DHT22;18610;49.916;8.284;2023-05-07T04:24:12;15.00;99.90
32097;DHT22;18610;49.916;8.284;2023-05-07T04:26:39;15.00;99.90
32097;DHT22;18610;49.916;8.284;2023-05-07T04:29:06;15.00;99.90
32097;DHT22;18610;49.916;8.284;2023-05-07T04:31:34;15.10;99.90
32097;DHT22;18610;49.916;8.284;2023-05-07T04:34:01;15.10;99.90
32097;DHT22;18610;49.916;8.284;2023-05-07T04:36:28;15.10;99.90
32097;DHT22;18610;49.916;8.284;2023-05-07T04:38:55;15.10;99.90
32097;DHT22;18610;49.916;8.284;2023-05-07T04:41:21;15.10;99.90
32097;DHT22;18610;49.916;8.284;2023-05-07T04:43:48;15.10;99.90
32097;DHT22;18610;49.916;8.284;2023-05-07T04:46:15;15.10;99.90
32097;DHT22;18610;49.916;8.284;2023-05-07T04:48:43;15.20;99.90
32097;DHT22;18610;49.916;8.284;2023-05-07T04:51:09;15.20;99.90
32097;DHT22;18610;49.916;8.284;2023-05-07T04:53:37;15.20;99.90
32097;DHT22;18610;49.916;8.284;2023-05-07T04:56:04;15.30;99.90
32097;DHT22;18610;49.916;8.284;2023-05-07T04:58:30;15.30;99.90
32097;DHT22;18610;49.916;8.284;2023-05-07T05:00:57;15.40;99.90
32097;DHT22;18610;49.916;8.284;2023-05-07T05:03:25;15.40;99.90
32097;DHT22;18610;49.916;8.284;2023-05-07T05:05:53;15.40;99.90
32097;DHT22;18610;49.916;8.284;2023-05-07T05:08:20;15.50;99.90
32097;DHT22;18610;49.916;8.284;2023-05-07T05:10:49;15.50;99.90
32097;DHT22;18610;49.916;8.284;2023-05-07T05:13:16;15.60;99.90
32097;DHT22;18610;49.916;8.284;2023-05-07T05:15:43;15.60;99.90
32097;DHT22;18610;49.916;8.284;2023-05-07T05:18:10;15.70;99.90
32097;DHT22;18610;49.916;8.284;2023-05-07T05:20:37;15.70;99.90
32097;DHT22;18610;49.916;8.284;2023-05-07T05:23:07;15.80;99.90
32097;DHT22;18610;49.916;8.284;2023-05-07T05:25:33;15.80;99.90
32097;DHT22;18610;49.916;8.284;2023-05-07T05:28:00;15.90;99.90
32097;DHT22;18610;49.916;8.284;2023-05-07T05:30:27;15.90;99.90
32097;DHT22;18610;49.916;8.284;2023-05-07T05:32:54;16.00;99.90
32097;DHT22;18610;49.916;8.284;2023-05-07T05:35:20;16.10;99.90
32097;DHT22;18610;49.916;8.284;2023-05-07T05:37:47;16.10;99.90
32097;DHT22;18610;49.916;8.284;2023-05-07T05:40:15;16.10;99.90
32097;DHT22;18610;49.916;8.284;2023-05-07T05:42:42;16.20;99.90
32097;DHT22;18610;49.916;8.284;2023-05-07T05:45:09;16.30;99.90
32097;DHT22;18610;49.916;8.284;2023-05-07T05:47:36;16.30;99.90
32097;DHT22;18610;49.916;8.284;2023-05-07T05:50:04;16.40;99.90
32097;DHT22;18610;49.916;8.284;2023-05-07T05:52:31;16.40;99.90
32097;DHT22;18610;49.916;8.284;2023-05-07T05:54:58;16.50;99.90
32097;DHT22;18610;49.916;8.284;2023-05-07T05:57:26;16.60;99.90
32097;DHT22;18610;49.916;8.284;2023-05-07T05:59:53;16.60;99.90
32097;DHT22;18610;49.916;8.284;2023-05-07T06:02:20;16.70;99.90
32097;DHT22;18610;49.916;8.284;2023-05-07T06:04:47;16.70;99.90
32097;DHT22;18610;49.916;8.284;2023-05-07T06:07:13;16.70;99.90
32097;DHT22;18610;49.916;8.284;2023-05-07T06:09:40;16.80;99.90
32097;DHT22;18610;49.916;8.284;2023-05-07T06:12:07;16.80;99.90
32097;DHT22;18610;49.916;8.284;2023-05-07T06:14:35;16.90;99.90
32097;DHT22;18610;49.916;8.284;2023-05-07T06:17:01;17.00;99.90
32097;DHT22;18610;49.916;8.284;2023-05-07T06:19:28;17.00;99.90
32097;DHT22;18610;49.916;8.284;2023-05-07T06:21:55;17.00;99.90
32097;DHT22;18610;49.916;8.284;2023-05-07T06:24:22;17.10;99.90
32097;DHT22;18610;49.916;8.284;2023-05-07T06:26:49;17.10;99.90
32097;DHT22;18610;49.916;8.284;2023-05-07T06:29:15;17.20;99.90
32097;DHT22;18610;49.916;8.284;2023-05-07T06:31:44;17.20;99.90
32097;DHT22;18610;49.916;8.284;2023-05-07T06:34:10;17.20;99.90
32097;DHT22;18610;49.916;8.284;2023-05-07T06:36:39;17.30;99.90
32097;DHT22;18610;49.916;8.284;2023-05-07T06:39:06;17.40;99.90
32097;DHT22;18610;49.916;8.284;2023-05-07T06:41:33;17.40;99.90
32097;DHT22;18610;49.916;8.284;2023-05-07T06:44:00;17.40;99.90
32097;DHT22;18610;49.916;8.284;2023-05-07T06:46:27;17.50;99.90
32097;DHT22;18610;49.916;8.284;2023-05-07T06:48:56;17.60;99.90
32097;DHT22;18610;49.916;8.284;2023-05-07T06:51:23;17.60;99.90
32097;DHT22;18610;49.916;8.284;2023-05-07T06:53:49;17.70;99.90
32097;DHT22;18610;49.916;8.284;2023-05-07T06:56:16;17.70;99.90
32097;DHT22;18610;49.916;8.284;2023-05-07T06:58:43;17.70;99.90
32097;DHT22;18610;49.916;8.284;2023-05-07T07:01:10;17.70;99.90
32097;DHT22;18610;49.916;8.284;2023-05-07T07:03:36;17.80;99.90
32097;DHT22;18610;49.916;8.284;2023-05-07T07:06:05;17.80;99.90
32097;DHT22;18610;49.916;8.284;2023-05-07T07:08:31;17.80;99.90
32097;DHT22;18610;49.916;8.284;2023-05-07T07:10:58;17.90;99.90
32097;DHT22;18610;49.916;8.284;2023-05-07T07:13:25;17.90;99.90
32097;DHT22;18610;49.916;8.284;2023-05-07T07:15:52;18.00;99.90
32097;DHT22;18610;49.916;8.284;2023-05-07T07:18:19;18.00;99.90
32097;DHT22;18610;49.916;8.284;2023-05-07T07:20:46;17.90;99.90
32097;DHT22;18610;49.916;8.284;2023-05-07T07:23:14;18.00;99.90
32097;DHT22;18610;49.916;8.284;2023-05-07T07:25:41;18.00;99.90
32097;DHT22;18610;49.916;8.284;2023-05-07T07:28:09;18.00;99.90
32097;DHT22;18610;49.916;8.284;2023-05-07T07:30:36;18.10;99.90
32097;DHT22;18610;49.916;8.284;2023-05-07T07:33:02;18.10;99.90
32097;DHT22;18610;49.916;8.284;2023-05-07T07:35:29;18.10;99.90
32097;DHT22;18610;49.916;8.284;2023-05-07T07:37:56;18.10;99.90
32097;DHT22;18610;49.916;8.284;2023-05-07T07:40:24;18.10;99.90
32097;DHT22;18610;49.916;8.284;2023-05-07T07:42:51;18.10;99.90
32097;DHT22;18610;49.916;8.284;2023-05-07T07:45:18;18.10;99.90
32097;DHT22;18610;49.916;8.284;2023-05-07T07:47:44;18.10;99.90
32097;DHT22;18610;49.916;8.284;2023-05-07T07:50:11;18.20;99.90
32097;DHT22;18610;49.916;8.284;2023-05-07T07:52:38;18.20;99.90
32097;DHT22;18610;49.916;8.284;2023-05-07T07:55:06;18.20;99.90
32097;DHT22;18610;49.916;8.284;2023-05-07T07:57:34;18.20;99.90
32097;DHT22;18610;49.916;8.284;2023-05-07T08:00:01;18.30;99.90
32097;DHT22;18610;49.916;8.284;2023-05-07T08:02:27;18.30;99.90
32097;DHT22;18610;49.916;8.284;2023-05-07T08:04:54;18.30;99.90
32097;DHT22;18610;49.916;8.284;2023-05-07T08:07:21;18.40;99.90
32097;DHT22;18610;49.916;8.284;2023-05-07T08:09:48;18.40;99.90
32097;DHT22;18610;49.916;8.284;2023-05-07T08:12:15;18.50;99.90
32097;DHT22;18610;49.916;8.284;2023-05-07T08:14:43;18.60;99.90
32097;DHT22;18610;49.916;8.284;2023-05-07T08:17:10;18.70;99.90
32097;DHT22;18610;49.916;8.284;2023-05-07T08:19:37;18.70;99.90
32097;DHT22;18610;49.916;8.284;2023-05-07T08:22:03;18.80;99.90
32097;DHT22;18610;49.916;8.284;2023-05-07T08:24:31;18.90;99.90
32097;DHT22;18610;49.916;8.284;2023-05-07T08:26:57;19.00;99.90
32097;DHT22;18610;49.916;8.284;2023-05-07T08:29:24;19.00;99.90
32097;DHT22;18610;49.916;8.284;2023-05-07T08:31:52;19.10;99.90
32097;DHT22;18610;49.916;8.284;2023-05-07T08:34:19;19.30;99.90
32097;DHT22;18610;49.916;8.284;2023-05-07T08:36:46;19.30;99.90
32097;DHT22;18610;49.916;8.284;2023-05-07T08:39:14;19.40;99.90
32097;DHT22;18610;49.916;8.284;2023-05-07T08:41:43;19.50;99.90
32097;DHT22;18610;49.916;8.284;2023-05-07T08:44:12;19.60;99.90
32097;DHT22;18610;49.916;8.284;2023-05-07T08:46:39;19.70;99.90
32097;DHT22;18610;49.916;8.284;2023-05-07T08:49:09;19.80;99.90
32097;DHT22;18610;49.916;8.284;2023-05-07T08:51:36;19.90;99.90
32097;DHT22;18610;49.916;8.284;2023-05-07T08:54:03;20.10;99.90
32097;DHT22;18610;49.916;8.284;2023-05-07T08:56:30;20.20;99.90
32097;DHT22;18610;49.916;8.284;2023-05-07T08:58:57;20.40;99.90
32097;DHT22;18610;49.916;8.284;2023-05-07T09:01:24;20.40;99.90
32097;DHT22;18610;49.916;8.284;2023-05-07T09:03:52;20.50;99.90
32097;DHT22;18610;49.916;8.284;2023-05-07T09:06:20;20.60;99.90
32097;DHT22;18610;49.916;8.284;2023-05-07T09:08:51;20.70;99.90
32097;DHT22;18610;49.916;8.284;2023-05-07T09:11:20;20.80;99.90
32097;DHT22;18610;49.916;8.284;2023-05-07T09:13:48;20.90;99.90
32097;DHT22;18610;49.916;8.284;2023-05-07T09:16:15;21.00;99.90
32097;DHT22;18610;49.916;8.284;2023-05-07T09:18:43;21.20;99.90
32097;DHT22;18610;49.916;8.284;2023-05-07T09:21:10;21.30;99.70
32097;DHT22;18610;49.916;8.284;2023-05-07T09:23:38;21.40;99.60
32097;DHT22;18610;49.916;8.284;2023-05-07T09:26:06;21.50;98.90
32097;DHT22;18610;49.916;8.284;2023-05-07T09:28:38;21.60;98.40
32097;DHT22;18610;49.916;8.284;2023-05-07T09:31:06;21.70;98.10
32097;DHT22;18610;49.916;8.284;2023-05-07T09:33:32;21.80;97.90
32097;DHT22;18610;49.916;8.284;2023-05-07T09:36:02;22.00;97.80
32097;DHT22;18610;49.916;8.284;2023-05-07T09:38:29;22.20;97.80
32097;DHT22;18610;49.916;8.284;2023-05-07T09:41:05;22.30;97.30
32097;DHT22;18610;49.916;8.284;2023-05-07T09:43:32;22.40;96.60
32097;DHT22;18610;49.916;8.284;2023-05-07T09:46:02;22.40;96.00
32097;DHT22;18610;49.916;8.284;2023-05-07T09:48:29;22.50;96.70
32097;DHT22;18610;49.916;8.284;2023-05-07T09:50:59;22.60;96.70
32097;DHT22;18610;49.916;8.284;2023-05-07T09:53:29;22.70;96.50
32097;DHT22;18610;49.916;8.284;2023-05-07T09:55:56;22.80;96.50
32097;DHT22;18610;49.916;8.284;2023-05-07T09:58:26;22.90;96.00
32097;DHT22;18610;49.916;8.284;2023-05-07T10:00:53;23.00;95.70
32097;DHT22;18610;49.916;8.284;2023-05-07T10:03:22;23.00;95.40
32097;DHT22;18610;49.916;8.284;2023-05-07T10:05:50;23.10;95.10
32097;DHT22;18610;49.916;8.284;2023-05-07T10:08:17;23.10;95.30
32097;DHT22;18610;49.916;8.284;2023-05-07T10:10:45;23.20;94.90
32097;DHT22;18610;49.916;8.284;2023-05-07T10:13:12;23.30;94.80
32097;DHT22;18610;49.916;8.284;2023-05-07T10:15:41;23.40;94.90
32097;DHT22;18610;49.916;8.284;2023-05-07T10:18:08;23.50;94.60
32097;DHT22;18610;49.916;8.284;2023-05-07T10:20:36;23.50;93.30
32097;DHT22;18610;49.916;8.284;2023-05-07T10:23:04;23.50;93.30
32097;DHT22;18610;49.916;8.284;2023-05-07T10:25:32;23.70;93.60
32097;DHT22;18610;49.916;8.284;2023-05-07T10:28:02;23.90;93.00
32097;DHT22;18610;49.916;8.284;2023-05-07T10:30:38;24.30;92.60
32097;DHT22;18610;49.916;8.284;2023-05-07T10:33:10;24.60;92.20
32097;DHT22;18610;49.916;8.284;2023-05-07T10:35:41;25.00;91.20
32097;DHT22;18610;49.916;8.284;2023-05-07T10:38:09;25.20;90.40
32097;DHT22;18610;49.916;8.284;2023-05-07T10:40:36;25.40;89.80
32097;DHT22;18610;49.916;8.284;2023-05-07T10:43:04;25.60;87.70
32097;DHT22;18610;49.916;8.284;2023-05-07T10:45:31;25.60;86.60
32097;DHT22;18610;49.916;8.284;2023-05-07T10:48:10;25.80;86.60
32097;DHT22;18610;49.916;8.284;2023-05-07T10:50:38;26.10;85.90
32097;DHT22;18610;49.916;8.284;2023-05-07T10:53:24;26.50;85.70
32097;DHT22;18610;49.916;8.284;2023-05-07T10:56:24;26.90;81.90
32097;DHT22;18610;49.916;8.284;2023-05-07T10:58:52;27.10;80.60
32097;DHT22;18610;49.916;8.284;2023-05-07T11:04:25;27.50;78.30
32097;DHT22;18610;49.916;8.284;2023-05-07T11:07:21;27.50;76.00
32097;DHT22;18610;49.916;8.284;2023-05-07T11:10:01;27.50;75.00
32097;DHT22;18610;49.916;8.284;2023-05-07T11:12:52;27.60;74.80
32097;DHT22;18610;49.916;8.284;2023-05-07T11:15:37;27.60;73.10
32097;DHT22;18610;49.916;8.284;2023-05-07T11:18:04;27.70;71.10
32097;DHT22;18610;49.916;8.284;2023-05-07T11:20:55;27.70;72.60
32097;DHT22;18610;49.916;8.284;2023-05-07T11:26:44;27.60;69.10
32097;DHT22;18610;49.916;8.284;2023-05-07T11:29:12;27.50;69.60
32097;DHT22;18610;49.916;8.284;2023-05-07T11:31:39;27.40;70.20
32097;DHT22;18610;49.916;8.284;2023-05-07T11:34:06;27.40;67.90
32097;DHT22;18610;49.916;8.284;2023-05-07T11:36:36;27.30;68.60
32097;DHT22;18610;49.916;8.284;2023-05-07T11:39:23;27.20;70.20
32097;DHT22;18610;49.916;8.284;2023-05-07T11:41:50;27.00;71.20
32097;DHT22;18610;49.916;8.284;2023-05-07T11:44:17;27.00;69.80
32097;DHT22;18610;49.916;8.284;2023-05-07T11:46:44;26.90;70.70
32097;DHT22;18610;49.916;8.284;2023-05-07T11:49:12;26.80;70.30
32097;DHT22;18610;49.916;8.284;2023-05-07T11:51:41;26.80;70.90
32097;DHT22;18610;49.916;8.284;2023-05-07T11:54:08;26.80;69.00
32097;DHT22;18610;49.916;8.284;2023-05-07T11:56:36;26.70;69.40
32097;DHT22;18610;49.916;8.284;2023-05-07T11:59:03;26.70;68.90
32097;DHT22;18610;49.916;8.284;2023-05-07T12:01:30;26.70;69.40
32097;DHT22;18610;49.916;8.284;2023-05-07T12:03:57;26.60;70.60
32097;DHT22;18610;49.916;8.284;2023-05-07T12:06:24;26.60;72.60
32097;DHT22;18610;49.916;8.284;2023-05-07T12:08:53;26.70;72.80
32097;DHT22;18610;49.916;8.284;2023-05-07T12:11:23;26.80;70.40
32097;DHT22;18610;49.916;8.284;2023-05-07T12:13:50;27.00;68.00
32097;DHT22;18610;49.916;8.284;2023-05-07T12:16:17;27.20;66.90
32097;DHT22;18610;49.916;8.284;2023-05-07T12:18:45;27.40;67.70
32097;DHT22;18610;49.916;8.284;2023-05-07T12:21:13;27.50;66.10
32097;DHT22;18610;49.916;8.284;2023-05-07T12:23:40;27.60;64.60
32097;DHT22;18610;49.916;8.284;2023-05-07T12:26:08;27.60;64.70
32097;DHT22;18610;49.916;8.284;2023-05-07T12:28:38;27.50;64.30
32097;DHT22;18610;49.916;8.284;2023-05-07T12:31:06;27.40;63.70
32097;DHT22;18610;49.916;8.284;2023-05-07T12:33:34;27.40;63.70
32097;DHT22;18610;49.916;8.284;2023-05-07T12:36:04;27.40;64.60
32097;DHT22;18610;49.916;8.284;2023-05-07T12:38:35;27.50;62.90
32097;DHT22;18610;49.916;8.284;2023-05-07T12:41:02;27.40;60.70
32097;DHT22;18610;49.916;8.284;2023-05-07T12:43:30;27.30;62.10
32097;DHT22;18610;49.916;8.284;2023-05-07T12:46:00;27.20;63.40
32097;DHT22;18610;49.916;8.284;2023-05-07T12:48:27;27.10;62.60
32097;DHT22;18610;49.916;8.284;2023-05-07T12:50:55;27.10;61.60
32097;DHT22;18610;49.916;8.284;2023-05-07T12:53:24;27.10;64.00
32097;DHT22;18610;49.916;8.284;2023-05-07T12:55:52;27.20;64.60
32097;DHT22;18610;49.916;8.284;2023-05-07T12:58:20;27.30;63.90
32097;DHT22;18610;49.916;8.284;2023-05-07T13:00:50;27.60;65.30
32097;DHT22;18610;49.916;8.284;2023-05-07T13:03:21;27.90;62.20
32097;DHT22;18610;49.916;8.284;2023-05-07T13:05:49;28.10;60.40
32097;DHT22;18610;49.916;8.284;2023-05-07T13:08:24;28.10;59.80
32097;DHT22;18610;49.916;8.284;2023-05-07T13:10:51;28.20;60.60
32097;DHT22;18610;49.916;8.284;2023-05-07T13:13:18;28.30;60.40
32097;DHT22;18610;49.916;8.284;2023-05-07T13:15:45;28.50;58.50
32097;DHT22;18610;49.916;8.284;2023-05-07T13:18:14;28.70;58.70
32097;DHT22;18610;49.916;8.284;2023-05-07T13:20:41;28.90;57.40
32097;DHT22;18610;49.916;8.284;2023-05-07T13:23:07;28.90;56.20
32097;DHT22;18610;49.916;8.284;2023-05-07T13:25:34;29.00;54.80
32097;DHT22;18610;49.916;8.284;2023-05-07T13:28:01;29.20;55.90
32097;DHT22;18610;49.916;8.284;2023-05-07T13:30:28;29.10;55.70
32097;DHT22;18610;49.916;8.284;2023-05-07T13:32:55;29.20;55.00
32097;DHT22;18610;49.916;8.284;2023-05-07T13:35:24;29.20;55.00
32097;DHT22;18610;49.916;8.284;2023-05-07T13:37:51;29.40;54.90
32097;DHT22;18610;49.916;8.284;2023-05-07T13:40:18;29.60;54.40
32097;DHT22;18610;49.916;8.284;2023-05-07T13:42:45;29.50;52.70
32097;DHT22;18610;49.916;8.284;2023-05-07T13:45:12;29.60;53.30
32097;DHT22;18610;49.916;8.284;2023-05-07T13:47:39;29.70;52.50
32097;DHT22;18610;49.916;8.284;2023-05-07T13:50:07;29.50;52.20
32097;DHT22;18610;49.916;8.284;2023-05-07T13:52:35;29.30;52.60
32097;DHT22;18610;49.916;8.284;2023-05-07T13:55:03;29.10;52.90
32097;DHT22;18610;49.916;8.284;2023-05-07T13:57:30;28.80;53.90
32097;DHT22;18610;49.916;8.284;2023-05-07T13:59:56;28.50;54.80
32097;DHT22;18610;49.916;8.284;2023-05-07T14:02:23;28.20;55.30
32097;DHT22;18610;49.916;8.284;2023-05-07T14:04:50;27.90;56.90
32097;DHT22;18610;49.916;8.284;2023-05-07T14:07:16;27.70;56.60
32097;DHT22;18610;49.916;8.284;2023-05-07T14:09:44;27.70;56.20
32097;DHT22;18610;49.916;8.284;2023-05-07T14:12:11;27.60;56.70
32097;DHT22;18610;49.916;8.284;2023-05-07T14:14:38;27.40;56.80
32097;DHT22;18610;49.916;8.284;2023-05-07T14:17:04;27.30;57.50
32097;DHT22;18610;49.916;8.284;2023-05-07T14:19:31;27.10;57.60
32097;DHT22;18610;49.916;8.284;2023-05-07T14:21:58;27.00;58.10
32097;DHT22;18610;49.916;8.284;2023-05-07T14:24:25;26.80;57.80
32097;DHT22;18610;49.916;8.284;2023-05-07T14:26:53;26.80;58.70
32097;DHT22;18610;49.916;8.284;2023-05-07T14:29:20;26.60;58.70
32097;DHT22;18610;49.916;8.284;2023-05-07T14:31:47;26.40;59.70
32097;DHT22;18610;49.916;8.284;2023-05-07T14:34:14;26.30;59.20
32097;DHT22;18610;49.916;8.284;2023-05-07T14:36:40;26.10;59.40
32097;DHT22;18610;49.916;8.284;2023-05-07T14:39:08;25.90;59.00
32097;DHT22;18610;49.916;8.284;2023-05-07T14:41:35;25.80;59.80
32097;DHT22;18610;49.916;8.284;2023-05-07T14:44:03;25.70;61.80
32097;DHT22;18610;49.916;8.284;2023-05-07T14:46:30;25.60;62.60
32097;DHT22;18610;49.916;8.284;2023-05-07T14:48:57;25.50;62.20
32097;DHT22;18610;49.916;8.284;2023-05-07T14:51:24;25.40;63.30
32097;DHT22;18610;49.916;8.284;2023-05-07T14:53:51;25.30;64.40
32097;DHT22;18610;49.916;8.284;2023-05-07T14:56:17;25.20;64.40
32097;DHT22;18610;49.916;8.284;2023-05-07T14:58:46;25.10;64.60
32097;DHT22;18610;49.916;8.284;2023-05-07T15:01:15;25.00;63.70
32097;DHT22;18610;49.916;8.284;2023-05-07T15:03:41;24.90;64.70
32097;DHT22;18610;49.916;8.284;2023-05-07T15:06:08;24.80;64.70
32097;DHT22;18610;49.916;8.284;2023-05-07T15:08:35;24.70;64.70
32097;DHT22;18610;49.916;8.284;2023-05-07T15:11:02;24.60;65.60
32097;DHT22;18610;49.916;8.284;2023-05-07T15:13:29;24.50;66.50
32097;DHT22;18610;49.916;8.284;2023-05-07T15:15:55;24.40;67.60
32097;DHT22;18610;49.916;8.284;2023-05-07T15:18:24;24.30;68.00
32097;DHT22;18610;49.916;8.284;2023-05-07T15:20:50;24.20;68.70
32097;DHT22;18610;49.916;8.284;2023-05-07T15:23:17;24.10;68.70
32097;DHT22;18610;49.916;8.284;2023-05-07T15:25:44;24.00;68.50
32097;DHT22;18610;49.916;8.284;2023-05-07T15:28:10;24.00;68.60
32097;DHT22;18610;49.916;8.284;2023-05-07T15:30:37;23.90;69.30
32097;DHT22;18610;49.916;8.284;2023-05-07T15:33:04;23.80;70.20
32097;DHT22;18610;49.916;8.284;2023-05-07T15:35:32;23.80;71.40
32097;DHT22;18610;49.916;8.284;2023-05-07T15:37:58;23.80;72.90
32097;DHT22;18610;49.916;8.284;2023-05-07T15:40:25;23.70;73.50